Latest Weather Observations for Gympie

IDQ60901

Issued at 11:41 pm EST Tuesday 9 February 2016 (issued every 10 minutes, with the page automatically refreshed every 10 minutes)

About weather observations | Map of Brisbane area stations | Latest observations for Brisbane area | Other Formats
Station Details ID: 040093 Name: GYMPIE Lat: -26.18 Lon: 152.64 Height: 64.5 m
Data from the previous 72 hours. | See also: Recent months at Gympie
Date/Time
EST
Tmp

°C
App
Tmp
°C
Dew
Point
°C
Rel
Hum
%
Delta-T

°C
Wind Press
QNH
hPa
Press
MSL
hPa
Rain
since
9 am
mm
Dir
 
Spd
km/h
Gust
km/h
Spd
kts
Gust
kts
09/11:30pm 20.6 22.1 18.0 85 1.6 SSE 7 11 4 6 1014.3 1013.9 0.0
09/11:00pm 21.4 22.3 18.4 83 1.9 SSE 11 20 6 11 1014.5 1014.2 0.0
09/10:30pm 21.5 20.6 18.1 81 2.1 SSE 20 35 11 19 1014.7 1014.4 0.0
09/10:00pm 22.3 23.7 17.9 76 2.7 SSE 7 11 4 6 1015.0 1014.7 0.0
09/09:30pm 22.3 23.5 17.4 74 3.0 SSE 7 15 4 8 1015.3 1015.0 0.0
09/09:00pm 22.1 23.2 17.0 73 3.1 SSE 7 13 4 7 1015.2 1014.9 0.0
09/08:30pm 22.4 23.5 17.1 72 3.3 S 7 22 4 12 1015.0 1014.7 0.0
09/08:00pm 22.3 23.6 17.2 73 3.1 SSE 6 7 3 4 1014.9 1014.6 0.0
09/07:30pm 22.9 23.9 16.9 69 3.7 SE 7 11 4 6 1014.8 1014.5 0.0
09/07:00pm 23.7 24.5 17.2 67 4.0 SE 9 13 5 7 1014.6 1014.3 0.0
09/06:30pm 24.4 25.0 16.9 63 4.6 SE 9 17 5 9 1014.2 1013.8 0.0
09/06:00pm 25.5 24.9 16.6 58 5.5 SE 15 24 8 13 1013.9 1013.5 0.0
09/05:30pm 26.4 25.2 16.1 53 6.3 SE 17 32 9 17 1013.5 1013.1 0.0
09/05:00pm 26.9 25.5 17.1 55 6.1 SE 20 33 11 18 1013.2 1012.8 0.0
09/04:30pm 27.4 26.6 17.0 53 6.5 SE 17 32 9 17 1013.1 1012.7 0.0
09/04:00pm 28.1 26.8 17.3 52 6.8 SE 20 32 11 17 1013.0 1012.6 0.0
09/03:30pm 27.7 26.7 16.6 50 6.9 SE 17 32 9 17 1013.0 1012.6 0.0
09/03:00pm 28.5 28.1 18.0 53 6.7 SE 17 26 9 14 1013.1 1012.7 0.0
09/02:30pm 27.4 25.8 16.4 51 6.8 SE 20 33 11 18 1013.3 1012.9 0.0
09/02:00pm 28.6 27.8 17.2 50 7.2 SE 17 39 9 21 1013.4 1013.0 0.0
09/01:30pm 27.0 25.4 16.0 51 6.8 SSE 19 39 10 21 1013.7 1013.3 0.0
09/01:00pm 27.3 25.9 16.6 52 6.7 SSE 19 32 10 17 1013.9 1013.5 0.0
09/12:30pm 26.9 25.9 16.5 53 6.4 SE 17 22 9 12 1014.1 1013.7 0.0
09/12:00pm 26.4 26.0 18.0 60 5.3 SSE 17 26 9 14 1014.2 1013.8 0.0
09/11:30am 26.5 26.9 18.1 60 5.3 SSE 13 20 7 11 1014.4 1014.1 0.0
09/11:00am 25.7 26.4 18.9 66 4.4 SE 13 22 7 12 1014.8 1014.5 0.0
09/10:30am 24.0 23.3 18.2 70 3.7 SE 19 32 10 17 1015.1 1014.8 0.0
09/10:00am 24.9 25.0 19.1 70 3.7 SSE 17 28 9 15 1015.3 1015.0 0.0
09/09:30am 26.1 26.3 18.5 63 4.8 SSE 15 28 8 15 1015.2 1014.9 0.0
09/09:00am 25.1 25.2 18.3 66 4.3 SSE 15 28 8 15 1015.1 1014.8 0.0
09/08:30am 24.9 26.4 18.8 69 3.9 S 9 15 5 8 1015.2 1014.9 0.0
09/08:00am 23.2 24.0 18.1 73 3.2 SSE 11 17 6 9 1015.2 1014.9 0.0
09/07:30am 22.9 23.8 17.6 72 3.3 SSE 9 15 5 8 1015.0 1014.7 0.0
09/07:00am 22.2 23.8 17.8 76 2.7 SSE 6 7 3 4 1014.7 1014.4 0.0
09/06:30am 22.0 23.9 17.6 76 2.7 SSE 4 9 2 5 1014.4 1014.1 0.0
09/06:00am 20.9 22.7 17.3 80 2.2 SSE 4 7 2 4 1014.2 1013.8 0.0
09/05:30am 20.4 21.7 17.0 81 2.1 SSE 6 9 3 5 1013.8 1013.4 0.0
09/05:00am 20.7 21.6 16.7 78 2.4 SSE 7 13 4 7 1013.5 1013.1 0.0
09/04:30am 21.2 21.9 17.0 77 2.6 S 9 13 5 7 1013.2 1012.8 0.0
09/04:00am 21.6 22.8 17.4 77 2.6 SSE 7 13 4 7 1013.1 1012.7 0.0
09/03:30am 20.6 22.1 17.6 83 1.8 SSE 6 13 3 7 1012.9 1012.5 0.0
09/03:00am 20.8 21.9 17.2 80 2.2 SSE 7 9 4 5 1013.0 1012.6 0.0
09/02:30am 21.4 22.3 17.6 79 2.3 SSE 9 13 5 7 1013.1 1012.7 0.0
09/02:00am 21.4 21.9 17.4 78 2.5 S 11 17 6 9 1013.2 1012.8 0.0
09/01:30am 21.5 22.0 17.5 78 2.5 S 11 19 6 10 1013.4 1013.0 0.0
09/01:00am 21.7 22.3 17.7 78 2.5 S 11 20 6 11 1013.6 1013.2 0.0
09/12:30am 21.0 22.7 18.4 85 1.6 SSE 7 9 4 5 1013.9 1013.5 0.0
09/12:00am 21.4 23.2 18.8 85 1.6 SSE 7 11 4 6 1014.2 1013.8 0.0
 
Date/Time
EST
Tmp

°C
App
Tmp
°C
Dew
Point
°C
Rel
Hum
%
Delta-T

°C
Wind Press
QNH
hPa
Press
MSL
hPa
Rain
since
9 am
mm
Dir
 
Spd
km/h
Gust
km/h
Spd
kts
Gust
kts
08/11:30pm 21.0 22.9 18.9 88 1.3 S 7 13 4 7 1014.5 1014.2 0.0
08/11:00pm 20.7 23.0 18.6 88 1.3 SE 4 4 2 2 1014.8 1014.5 0.0
08/10:30pm 21.5 24.2 18.7 84 1.8 SE 2 6 1 3 1015.0 1014.7 0.0
08/10:00pm 22.0 24.4 18.8 82 2.0 SE 4 6 2 3 1015.0 1014.7 0.0
08/09:30pm 22.1 24.6 19.1 83 1.9 SE 4 7 2 4 1014.9 1014.6 0.0
08/09:00pm 22.3 24.3 19.1 82 2.0 S 7 9 4 5 1014.8 1014.5 0.0
08/08:30pm 22.6 24.8 19.2 81 2.2 SSE 6 7 3 4 1014.8 1014.5 0.0
08/08:00pm 23.2 25.1 18.9 77 2.7 SE 7 13 4 7 1014.4 1014.1 0.0
08/07:30pm 23.6 25.3 18.5 73 3.2 SE 7 15 4 8 1014.2 1013.8 0.0
08/07:00pm 24.3 25.4 18.0 68 4.0 SE 9 24 5 13 1013.9 1013.5 0.0
08/06:30pm 25.1 25.4 17.8 64 4.6 SE 13 20 7 11 1013.5 1013.1 0.0
08/06:00pm 26.0 25.5 17.9 61 5.1 SE 17 32 9 17 1013.0 1012.6 0.0
08/05:30pm 26.2 26.6 17.3 58 5.6 SE 11 30 6 16 1012.5 1012.1 0.0
08/05:00pm 26.9 26.6 17.4 56 6.0 SE 15 28 8 15 1012.2 1011.8 0.0
08/04:30pm 27.9 28.9 18.6 57 6.0 SE 11 19 6 10 1012.2 1011.8 0.0
08/04:00pm 27.9 28.3 18.9 58 5.8 SE 15 24 8 13 1012.1 1011.7 0.0
08/03:30pm 28.7 29.4 17.9 52 6.9 SE 11 17 6 9 1012.1 1011.7 0.0
08/03:00pm 28.0 28.3 16.9 51 7.0 SE 11 19 6 10 1012.4 1012.0 0.0
08/02:30pm 29.6 30.2 17.8 49 7.5 SSE 11 24 6 13 1012.6 1012.2 0.0
08/02:00pm 28.5 28.8 17.1 50 7.2 SE 11 28 6 15 1013.0 1012.6 0.0
08/01:30pm 28.9 28.6 17.4 49 7.3 SE 15 33 8 18 1013.3 1012.9 0.0
08/01:00pm 28.0 28.3 16.9 51 7.0 SE 11 22 6 12 1013.6 1013.2 0.0
08/12:30pm 29.1 30.4 18.5 52 6.8 SSE 9 19 5 10 1013.8 1013.4 0.0
08/12:00pm 26.9 27.7 17.4 56 6.0 SSE 9 19 5 10 1014.1 1013.7 0.0
08/11:30am 27.5 28.4 18.5 58 5.8 SSE 11 20 6 11 1014.4 1014.1 0.0
08/11:00am 26.0 26.6 17.6 60 5.3 SSE 11 17 6 9 1014.7 1014.4 0.0
08/10:30am 26.1 26.8 18.0 61 5.1 SSE 11 20 6 11 1014.9 1014.6 0.0
08/10:00am 25.5 26.4 18.4 65 4.5 SSE 11 19 6 10 1015.0 1014.7 0.0
08/09:30am 25.2 25.7 17.4 62 4.9 SSE 11 19 6 10 1015.2 1014.9 0.0
08/09:00am 24.6 25.9 17.6 65 4.4 SSE 7 15 4 8 1015.2 1014.9 1.6
08/08:30am 25.2 25.9 17.9 64 4.6 S 11 19 6 10 1015.3 1015.0 1.6
08/08:00am 24.4 24.9 17.4 65 4.4 S 11 20 6 11 1015.4 1015.1 1.6
08/07:30am 23.7 24.8 17.2 67 4.0 SSE 7 15 4 8 1015.3 1015.0 1.6
08/07:00am 22.6 24.5 17.7 74 3.0 SSE 4 6 2 3 1015.0 1014.7 1.6
08/06:30am 21.3 23.3 17.9 81 2.1 S 4 6 2 3 1014.8 1014.5 1.6
08/06:00am 19.6 21.7 17.2 86 1.5 SSE 2 4 1 2 1014.6 1014.3 1.6
08/05:30am 19.9 21.2 17.1 84 1.7 S 6 9 3 5 1014.2 1013.8 1.6
08/05:00am 20.4 22.3 17.6 84 1.7 SE 4 6 2 3 1013.7 1013.3 1.6
08/04:30am 20.5 22.5 17.9 85 1.6 SSE 4 6 2 3 1013.6 1013.2 1.6
08/04:00am 20.7 22.3 17.9 84 1.7 SSE 6 9 3 5 1013.5 1013.1 1.6
08/03:30am 21.1 22.6 17.7 81 2.1 SSE 6 11 3 6 1013.6 1013.2 1.6
08/03:00am 21.1 22.2 17.9 82 2.0 S 9 15 5 8 1013.6 1013.2 1.6
08/02:30am 21.5 22.8 18.5 83 1.9 S 9 17 5 9 1013.9 1013.5 1.6
08/02:00am 21.4 23.3 19.0 86 1.5 S 7 11 4 6 1014.0 1013.6 1.6
08/01:30am 21.4 23.9 19.0 86 1.5 SE 4 6 2 3 1014.0 1013.6 1.6
08/01:00am 21.4 24.2 18.8 85 1.6 SSE 2 4 1 2 1014.1 1013.7 1.6
08/12:30am 21.9 24.8 19.1 84 1.8 SE 2 4 1 2 1014.4 1014.1 1.6
08/12:00am 21.8 24.3 19.0 84 1.8 SE 4 6 2 3 1014.6 1014.3 1.6
 
Date/Time
EST
Tmp

°C
App
Tmp
°C
Dew
Point
°C
Rel
Hum
%
Delta-T

°C
Wind Press
QNH
hPa
Press
MSL
hPa
Rain
since
9 am
mm
Dir
 
Spd
km/h
Gust
km/h
Spd
kts
Gust
kts
07/11:30pm 22.3 25.6 19.1 82 2.0 CALM 0 6 0 3 1014.8 1014.5 1.6
07/11:00pm 22.4 24.6 19.2 82 2.0 SSE 6 7 3 4 1014.8 1014.5 1.6
07/10:30pm 22.3 24.5 19.3 83 1.9 S 6 9 3 5 1015.0 1014.7 1.6
07/10:00pm 22.1 24.7 19.3 84 1.8 SSE 4 6 2 3 1014.8 1014.5 1.6
07/09:30pm 22.3 25.2 19.1 82 2.0 SSE 2 4 1 2 1014.8 1014.5 1.6
07/09:00pm 22.5 25.0 19.1 81 2.2 SE 4 7 2 4 1014.6 1014.3 1.6
07/08:30pm 22.7 24.9 19.1 80 2.3 SSE 6 11 3 6 1014.4 1014.1 1.6
07/08:00pm 22.9 25.1 19.1 79 2.4 SSE 6 9 3 5 1014.1 1013.7 1.6
07/07:30pm 23.3 24.9 19.2 78 2.6 SSE 9 15 5 8 1014.0 1013.6 1.6
07/07:00pm 23.4 25.2 19.5 79 2.5 SSE 9 17 5 9 1013.7 1013.3 1.6
07/06:30pm 24.0 24.7 19.7 77 2.8 SSE 15 20 8 11 1013.3 1012.9 1.6
07/06:00pm 24.8 25.7 20.1 75 3.1 SSE 15 28 8 15 1012.8 1012.4 1.6
07/05:30pm 25.7 26.7 20.3 72 3.5 SE 15 26 8 14 1012.4 1012.0 1.6
07/05:00pm 25.3 25.7 19.9 72 3.5 SE 17 33 9 18 1012.0 1011.6 1.6
07/04:30pm 25.7 27.2 20.5 73 3.4 SE 13 20 7 11 1011.7 1011.3 1.6
07/04:00pm 25.3 26.7 21.0 77 2.8 SE 15 24 8 13 1011.7 1011.3 1.6
07/03:30pm 25.0 25.8 20.7 77 2.8 SE 17 30 9 16 1011.7 1011.3 1.6
07/03:00pm 25.3 26.9 20.8 76 3.0 SSE 13 20 7 11 1011.5 1011.1 1.6
07/02:30pm 24.5 26.1 22.2 87 1.5 SSE 17 37 9 20 1011.8 1011.4 1.6
07/02:00pm 26.7 29.1 21.5 73 3.5 SSE 11 20 6 11 1011.8 1011.4 0.4
07/01:30pm 24.9 26.4 21.2 80 2.4 SSE 15 30 8 16 1012.4 1012.0 0.4
07/01:00pm 26.6 29.0 21.6 74 3.3 SE 11 20 6 11 1012.4 1012.0 0.4
07/12:30pm 24.4 27.0 21.9 86 1.7 SSE 11 24 6 13 1012.7 1012.3 0.4
07/12:00pm 25.1 26.4 20.8 77 2.8 SE 15 24 8 13 1012.9 1012.5 0.2
07/11:30am 26.0 28.6 21.9 78 2.7 SSE 11 17 6 9 1012.7 1012.3 0.2
07/11:00am 23.2 24.5 20.9 87 1.5 SSE 15 22 8 12 1012.8 1012.4 0.2
07/10:30am 25.7 27.6 21.4 77 2.9 SE 13 24 7 13 1012.6 1012.2 0.0
07/10:00am 25.7 27.5 20.3 72 3.5 SSE 11 20 6 11 1012.6 1012.2 0.0
07/09:30am 25.3 25.7 19.9 72 3.5 SSE 17 28 9 15 1012.7 1012.3 0.0
07/09:00am 24.5 26.8 20.6 79 2.6 SE 9 19 5 10 1012.7 1012.3 2.4
07/08:30am 24.0 26.0 20.7 82 2.2 SSE 11 17 6 9 1012.7 1012.3 2.4
07/08:00am 23.1 26.3 21.7 92 0.9 SSE 7 15 4 8 1012.7 1012.3 2.4
07/07:30am 22.9 24.8 20.6 87 1.5 SSE 11 20 6 11 1012.5 1012.1 2.4
07/07:00am 23.1 25.9 20.8 87 1.5 SSE 7 11 4 6 1012.3 1011.9 2.4
07/06:30am 22.5 25.7 20.6 89 1.2 SE 4 6 2 3 1012.2 1011.8 2.4
07/06:00am 22.0 25.1 20.3 90 1.1 SE 4 6 2 3 1011.7 1011.3 2.4
07/05:30am 22.0 25.0 20.1 89 1.2 SE 4 6 2 3 1011.5 1011.1 2.4
07/05:00am 22.1 25.1 20.0 88 1.4 SE 4 6 2 3 1011.1 1010.7 2.4
07/04:30am 22.0 25.0 20.1 89 1.2 SE 4 7 2 4 1010.4 1010.0 2.4
07/04:00am 22.1 24.9 20.4 90 1.1 SSE 6 9 3 5 1010.3 1009.9 2.4
07/03:30am 22.1 25.0 20.7 92 0.9 SE 6 7 3 4 1010.3 1009.9 2.4
07/03:00am 22.1 25.5 20.9 93 0.8 SE 4 7 2 4 1010.4 1010.0 2.4
07/02:30am 22.2 25.6 21.0 93 0.8 SE 4 6 2 3 1010.5 1010.1 2.4
07/02:00am 22.1 25.5 20.9 93 0.8 SE 4 6 2 3 1010.6 1010.2 2.4
07/01:30am 22.1 25.6 21.1 94 0.7 S 4 4 2 2 1010.6 1010.2 2.4
07/01:00am 22.1 25.5 20.9 93 0.8 S 4 4 2 2 1011.0 1010.6 2.4
07/12:30am 22.2 25.3 21.0 93 0.8 SSE 6 11 3 6 1011.3 1010.9 2.4
07/12:00am 22.4 25.5 21.4 94 0.7 SSE 7 11 4 6 1011.6 1011.2 2.0

Latest Capital City Observations: Canberra | Sydney | Melbourne | Brisbane | Adelaide | Perth | Hobart | Darwin

Other Formats:

Comma delimited format used in spreadsheet applications
http://www.bom.gov.au/fwo/IDQ60901/IDQ60901.94566.axf

JavaScript Object Notation format (JSON) in row-major order
http://www.bom.gov.au/fwo/IDQ60901/IDQ60901.94566.json